Time;durP1;ratioP1;P1;durP2;ratioP2;P2;SDS_P1;SDS_P2;PMS_P1;PMS_P2;Temp;Humidity;BMP_temperature;BMP_pressure;BME280_temperature;BME280_humidity;BME280_pressure;Samples;Min_cycle;Max_cycle;Signal;HPM_P1;HPM_P2
2022/12/16 00:02:19;;;;;;;63.87;28.97;;;;;;;-1.29;100.00;96507.44;6219524;28;20238;-43
2022/12/16 00:05:21;;;;;;;65.60;31.77;;;;;;;-1.32;100.00;96510.22;6216651;28;20231;-43
2022/12/16 00:08:24;;;;;;;76.40;33.33;;;;;;;-1.31;100.00;96514.47;6217806;28;20307;-44
2022/12/16 00:11:27;;;;;;;67.73;31.37;;;;;;;-1.30;100.00;96510.13;6213827;28;20216;-43
2022/12/16 00:14:29;;;;;;;72.10;33.70;;;;;;;-1.30;100.00;96500.63;6218324;28;20243;-43
2022/12/16 00:17:31;;;;;;;68.67;31.97;;;;;;;-1.26;100.00;96499.53;6215785;28;20366;-43
2022/12/16 00:20:33;;;;;;;72.07;32.67;;;;;;;-1.24;100.00;96484.75;6217965;28;20310;-43
2022/12/16 00:23:37;;;;;;;69.37;30.63;;;;;;;-1.22;100.00;96474.31;6216811;28;20308;-43
2022/12/16 00:26:40;;;;;;;64.13;32.10;;;;;;;-1.21;100.00;96469.06;6217050;28;20232;-44
2022/12/16 00:29:42;;;;;;;68.50;30.90;;;;;;;-1.18;100.00;96470.66;6219741;28;20362;-44
2022/12/16 00:32:44;;;;;;;79.13;35.87;;;;;;;-1.19;100.00;96482.75;6217997;28;20716;-44
2022/12/16 00:35:46;;;;;;;73.40;32.17;;;;;;;-1.18;100.00;96488.75;6219232;28;20437;-44
2022/12/16 00:38:51;;;;;;;74.73;34.23;;;;;;;-1.16;100.00;96487.78;6218693;28;20236;-43
2022/12/16 00:41:54;;;;;;;75.47;34.20;;;;;;;-1.13;100.00;96466.91;6220015;28;20719;-44
2022/12/16 00:44:56;;;;;;;80.10;35.60;;;;;;;-1.13;100.00;96459.16;6216811;28;20701;-43
2022/12/16 00:47:58;;;;;;;75.03;33.50;;;;;;;-1.15;100.00;96447.19;6217544;28;20731;-44
2022/12/16 00:51:00;;;;;;;71.43;35.00;;;;;;;-1.14;100.00;96433.34;6218468;28;20271;-44
2022/12/16 00:54:03;;;;;;;71.77;33.30;;;;;;;-1.15;100.00;96429.06;6217084;28;20232;-44
2022/12/16 00:57:05;;;;;;;76.90;33.53;;;;;;;-1.12;100.00;96431.50;6218826;28;20223;-43
2022/12/16 01:00:11;;;;;;;74.90;33.93;;;;;;;-1.09;100.00;96427.91;6214536;28;20298;-43
2022/12/16 01:03:13;;;;;;;67.93;33.23;;;;;;;-1.08;100.00;96433.00;6216183;28;20255;-44
2022/12/16 01:06:22;;;;;;;72.87;32.77;;;;;;;-1.07;100.00;96431.25;6217985;28;20752;-44
2022/12/16 01:09:24;;;;;;;71.63;33.37;;;;;;;-1.06;100.00;96419.97;6212271;28;20605;-44
2022/12/16 01:12:27;;;;;;;75.37;33.43;;;;;;;-1.05;100.00;96399.19;6212418;28;20235;-44
2022/12/16 01:15:29;;;;;;;65.47;33.23;;;;;;;-1.04;100.00;96395.69;6216402;28;20240;-43
2022/12/16 01:18:31;;;;;;;74.50;33.33;;;;;;;-1.03;100.00;96409.47;6214883;28;20597;-45
2022/12/16 01:21:33;;;;;;;66.80;32.43;;;;;;;-0.99;100.00;96404.00;6214149;28;20262;-43
2022/12/16 01:24:35;;;;;;;70.13;32.33;;;;;;;-0.99;100.00;96401.41;6217953;28;20231;-44
2022/12/16 01:27:38;;;;;;;71.47;34.70;;;;;;;-0.99;100.00;96408.34;6215435;28;20228;-44
2022/12/16 01:30:39;;;;;;;68.03;32.60;;;;;;;-1.01;100.00;96399.84;6217277;28;20754;-44
2022/12/16 01:33:42;;;;;;;67.70;34.37;;;;;;;-0.98;100.00;96397.09;6217600;28;20239;-43
2022/12/16 01:36:44;;;;;;;67.97;31.80;;;;;;;-0.98;100.00;96395.31;6205307;28;20228;-44
2022/12/16 01:39:46;;;;;;;63.63;31.10;;;;;;;-0.99;100.00;96393.66;6216720;28;20220;-43
2022/12/16 01:42:48;;;;;;;58.37;29.73;;;;;;;-0.96;100.00;96387.47;6216305;28;20315;-44
2022/12/16 01:45:53;;;;;;;52.57;27.07;;;;;;;-0.94;100.00;96385.66;6212602;28;20282;-43
2022/12/16 01:49:10;;;;;;;46.60;24.93;;;;;;;-0.91;100.00;96377.72;6216686;28;20242;-45
2022/12/16 01:52:19;;;;;;;42.50;24.60;;;;;;;-0.90;100.00;96371.63;6215791;28;20240;-44
2022/12/16 01:55:29;;;;;;;44.50;23.57;;;;;;;-0.86;100.00;96368.75;6221701;28;20322;-44
2022/12/16 01:58:37;;;;;;;41.63;22.73;;;;;;;-0.84;100.00;96361.75;6219038;28;20220;-43
2022/12/16 02:01:40;;;;;;;40.17;22.07;;;;;;;-0.82;100.00;96351.31;6218924;28;20227;-44
2022/12/16 02:08:09;;;;;;;31.33;17.50;;;;;;;-0.78;100.00;96343.25;6220541;28;20777;-44
2022/12/16 02:11:31;;;;;;;29.23;17.90;;;;;;;-0.75;100.00;96348.28;6221060;28;20233;-43
2022/12/16 02:14:52;;;;;;;24.37;15.27;;;;;;;-0.73;100.00;96340.41;6220390;28;20289;-44
2022/12/16 02:18:15;;;;;;;26.47;16.30;;;;;;;-0.72;100.00;96349.03;6217548;28;20267;-43
2022/12/16 02:21:29;;;;;;;23.07;14.33;;;;;;;-0.70;100.00;96371.34;6218976;28;20742;-43
2022/12/16 02:25:02;;;;;;;19.37;13.10;;;;;;;-0.67;100.00;96370.31;6216834;28;20236;-44
2022/12/16 02:28:13;;;;;;;20.73;13.87;;;;;;;-0.65;100.00;96377.06;6218326;28;20666;-43
2022/12/16 02:31:18;;;;;;;21.90;14.27;;;;;;;-0.63;100.00;96383.00;6216847;28;20269;-43
2022/12/16 02:34:36;;;;;;;17.53;12.50;;;;;;;-0.62;100.00;96384.69;6219910;28;20653;-43
2022/12/16 02:37:49;;;;;;;18.43;13.57;;;;;;;-0.60;100.00;96380.22;6220174;28;20227;-43
2022/12/16 02:41:01;;;;;;;17.80;12.37;;;;;;;-0.58;100.00;96377.56;6219024;28;20809;-43
2022/12/16 02:44:07;;;;;;;17.00;12.13;;;;;;;-0.56;100.00;96378.31;6216998;28;20241;-43
2022/12/16 02:47:09;;;;;;;16.83;11.83;;;;;;;-0.57;100.00;96374.88;6223527;28;20298;-43
2022/12/16 02:50:59;;;;;;;20.07;13.37;;;;;;;-0.57;100.00;96368.84;6224899;28;20259;-44
2022/12/16 02:54:02;;;;;;;18.57;13.30;;;;;;;-0.59;100.00;96350.81;6213297;28;20294;-43
2022/12/16 02:57:24;;;;;;;14.83;10.37;;;;;;;-0.57;100.00;96324.81;6218369;28;20293;-43
2022/12/16 03:00:34;;;;;;;14.07;9.80;;;;;;;-0.54;100.00;96309.09;6216969;28;20224;-43
2022/12/16 03:04:11;;;;;;;12.70;9.17;;;;;;;-0.54;100.00;96302.16;6218762;28;20240;-43
2022/12/16 03:07:17;;;;;;;9.47;7.67;;;;;;;-0.52;100.00;96286.53;6129711;28;20238;-42
2022/12/16 03:10:24;;;;;;;10.07;8.17;;;;;;;-0.52;100.00;96282.19;6131269;28;20250;-43
2022/12/16 03:13:31;;;;;;;7.27;6.10;;;;;;;-0.49;100.00;96283.75;6131880;28;20234;-43
2022/12/16 03:16:33;;;;;;;6.27;5.23;;;;;;;-0.45;100.00;96275.72;6127866;28;20381;-42
2022/12/16 03:19:40;;;;;;;7.67;5.90;;;;;;;-0.43;100.00;96267.84;6130573;28;20234;-42
2022/12/16 03:22:46;;;;;;;6.17;5.57;;;;;;;-0.42;100.00;96253.97;6130418;28;20241;-42
2022/12/16 03:25:50;;;;;;;6.33;5.13;;;;;;;-0.41;100.00;96247.88;6107309;28;20721;-44
2022/12/16 03:29:04;;;;;;;5.97;5.07;;;;;;;-0.41;100.00;96232.31;6130548;28;20765;-43
2022/12/16 03:32:17;;;;;;;5.47;4.80;;;;;;;-0.41;100.00;96234.91;6131782;28;20659;-42
2022/12/16 03:35:50;;;;;;;6.20;4.70;;;;;;;-0.39;100.00;96246.81;6131040;28;20334;-42
2022/12/16 03:38:54;;;;;;;6.03;5.13;;;;;;;-0.40;100.00;96236.59;6129111;28;20238;-42
2022/12/16 03:41:57;;;;;;;5.93;5.07;;;;;;;-0.41;100.00;96224.53;6180182;28;20695;-42
2022/12/16 03:45:00;;;;;;;7.40;5.17;;;;;;;-0.41;100.00;96201.22;6242668;28;20313;-42
2022/12/16 03:48:02;;;;;;;5.40;4.90;;;;;;;-0.41;100.00;96193.44;6242212;28;20214;-43
2022/12/16 03:51:04;;;;;;;5.17;4.63;;;;;;;-0.42;100.00;96176.22;6244476;28;20302;-42
2022/12/16 03:54:06;;;;;;;5.63;4.90;;;;;;;-0.43;100.00;96170.22;6244167;28;20634;-42
2022/12/16 03:57:08;;;;;;;6.63;5.37;;;;;;;-0.45;100.00;96174.66;6245304;28;20219;-42
2022/12/16 04:00:16;;;;;;;5.07;4.57;;;;;;;-0.47;100.00;96170.47;6242881;28;20216;-42
2022/12/16 04:03:21;;;;;;;5.53;4.80;;;;;;;-0.45;100.00;96191.97;6244625;28;20222;-42
2022/12/16 04:06:23;;;;;;;5.50;4.80;;;;;;;-0.46;100.00;96191.13;6245403;28;20703;-42
2022/12/16 04:09:25;;;;;;;5.43;4.83;;;;;;;-0.46;100.00;96201.50;6241810;28;20601;-42
2022/12/16 04:26:05;;;;;;;6.80;6.10;;;;;;;-0.44;100.00;96202.22;6249034;28;20236;-42
2022/12/16 04:29:07;;;;;;;7.67;5.90;;;;;;;-0.44;100.00;96189.28;6247008;28;20723;-42
2022/12/16 04:32:09;;;;;;;7.90;6.27;;;;;;;-0.42;100.00;96197.81;6245829;28;20374;-42
